sensor_id;sensor_type;location;lat;lon;timestamp;temperature;humidity
41922;DHT22;27609;51.002;5.354;2023-12-29T00:01:46;11.00;99.90
41922;DHT22;27609;51.002;5.354;2023-12-29T00:04:12;10.90;99.90
41922;DHT22;27609;51.002;5.354;2023-12-29T00:06:38;10.90;99.90
41922;DHT22;27609;51.002;5.354;2023-12-29T00:09:04;10.80;99.90
41922;DHT22;27609;51.002;5.354;2023-12-29T00:11:30;10.80;99.90
41922;DHT22;27609;51.002;5.354;2023-12-29T00:13:55;10.80;99.90
41922;DHT22;27609;51.002;5.354;2023-12-29T00:16:21;10.80;99.90
41922;DHT22;27609;51.002;5.354;2023-12-29T00:18:47;10.80;99.90
41922;DHT22;27609;51.002;5.354;2023-12-29T00:21:12;10.80;99.90
41922;DHT22;27609;51.002;5.354;2023-12-29T00:23:38;10.80;99.90
41922;DHT22;27609;51.002;5.354;2023-12-29T00:26:04;10.80;99.90
41922;DHT22;27609;51.002;5.354;2023-12-29T00:28:29;10.80;99.90
41922;DHT22;27609;51.002;5.354;2023-12-29T00:30:55;10.80;99.90
41922;DHT22;27609;51.002;5.354;2023-12-29T00:33:21;10.90;99.90
41922;DHT22;27609;51.002;5.354;2023-12-29T00:35:46;10.90;99.90
41922;DHT22;27609;51.002;5.354;2023-12-29T00:38:12;10.90;99.90
41922;DHT22;27609;51.002;5.354;2023-12-29T00:40:38;10.90;99.90
41922;DHT22;27609;51.002;5.354;2023-12-29T00:43:03;10.90;99.90
41922;DHT22;27609;51.002;5.354;2023-12-29T00:45:29;10.90;99.90
41922;DHT22;27609;51.002;5.354;2023-12-29T00:47:59;10.90;99.90
41922;DHT22;27609;51.002;5.354;2023-12-29T00:50:25;10.90;99.90
41922;DHT22;27609;51.002;5.354;2023-12-29T00:52:52;10.90;99.90
41922;DHT22;27609;51.002;5.354;2023-12-29T00:55:17;11.00;99.90
41922;DHT22;27609;51.002;5.354;2023-12-29T00:57:43;10.90;99.90
41922;DHT22;27609;51.002;5.354;2023-12-29T01:00:11;10.90;99.90
41922;DHT22;27609;51.002;5.354;2023-12-29T01:02:38;10.80;99.90
41922;DHT22;27609;51.002;5.354;2023-12-29T01:05:04;10.80;99.90
41922;DHT22;27609;51.002;5.354;2023-12-29T01:07:30;10.70;99.90
41922;DHT22;27609;51.002;5.354;2023-12-29T01:09:55;10.80;99.90
41922;DHT22;27609;51.002;5.354;2023-12-29T01:12:21;10.80;99.90
41922;DHT22;27609;51.002;5.354;2023-12-29T01:14:47;10.80;99.90
41922;DHT22;27609;51.002;5.354;2023-12-29T01:17:12;10.70;99.90
41922;DHT22;27609;51.002;5.354;2023-12-29T01:19:38;10.80;99.90
41922;DHT22;27609;51.002;5.354;2023-12-29T01:22:04;10.80;99.90
41922;DHT22;27609;51.002;5.354;2023-12-29T01:24:30;10.90;99.90
41922;DHT22;27609;51.002;5.354;2023-12-29T01:26:56;10.80;99.90
41922;DHT22;27609;51.002;5.354;2023-12-29T01:29:22;10.80;99.90
41922;DHT22;27609;51.002;5.354;2023-12-29T01:31:47;10.80;99.90
41922;DHT22;27609;51.002;5.354;2023-12-29T01:34:13;10.80;99.90
41922;DHT22;27609;51.002;5.354;2023-12-29T01:36:39;10.90;99.90
41922;DHT22;27609;51.002;5.354;2023-12-29T01:39:05;10.80;99.90
41922;DHT22;27609;51.002;5.354;2023-12-29T01:41:30;10.80;99.90
41922;DHT22;27609;51.002;5.354;2023-12-29T01:46:22;10.80;99.90
41922;DHT22;27609;51.002;5.354;2023-12-29T01:48:48;10.80;99.90
41922;DHT22;27609;51.002;5.354;2023-12-29T01:51:15;10.90;99.90
41922;DHT22;27609;51.002;5.354;2023-12-29T01:53:42;10.90;99.90
41922;DHT22;27609;51.002;5.354;2023-12-29T01:56:08;10.90;99.90
41922;DHT22;27609;51.002;5.354;2023-12-29T01:58:34;10.80;99.90
41922;DHT22;27609;51.002;5.354;2023-12-29T02:01:01;10.80;99.90
41922;DHT22;27609;51.002;5.354;2023-12-29T02:03:27;10.80;99.90
41922;DHT22;27609;51.002;5.354;2023-12-29T02:05:55;10.70;99.90
41922;DHT22;27609;51.002;5.354;2023-12-29T02:08:22;10.70;99.90
41922;DHT22;27609;51.002;5.354;2023-12-29T02:10:48;10.80;99.90
41922;DHT22;27609;51.002;5.354;2023-12-29T02:13:14;10.80;99.90
41922;DHT22;27609;51.002;5.354;2023-12-29T02:15:40;10.80;99.90
41922;DHT22;27609;51.002;5.354;2023-12-29T02:18:08;10.80;99.90
41922;DHT22;27609;51.002;5.354;2023-12-29T02:20:35;10.70;99.90
41922;DHT22;27609;51.002;5.354;2023-12-29T02:23:02;10.70;99.90
41922;DHT22;27609;51.002;5.354;2023-12-29T02:25:28;10.80;99.90
41922;DHT22;27609;51.002;5.354;2023-12-29T02:28:06;10.70;99.90
41922;DHT22;27609;51.002;5.354;2023-12-29T02:33:05;10.70;99.90
41922;DHT22;27609;51.002;5.354;2023-12-29T02:35:35;10.70;99.90
41922;DHT22;27609;51.002;5.354;2023-12-29T02:38:02;10.70;99.90
41922;DHT22;27609;51.002;5.354;2023-12-29T02:40:28;10.70;99.90
41922;DHT22;27609;51.002;5.354;2023-12-29T02:42:54;10.70;99.90
41922;DHT22;27609;51.002;5.354;2023-12-29T02:45:19;10.70;99.90
41922;DHT22;27609;51.002;5.354;2023-12-29T02:47:46;10.70;99.90
41922;DHT22;27609;51.002;5.354;2023-12-29T02:50:12;10.70;99.90
41922;DHT22;27609;51.002;5.354;2023-12-29T02:52:37;10.60;99.90
41922;DHT22;27609;51.002;5.354;2023-12-29T02:55:03;10.70;99.90
41922;DHT22;27609;51.002;5.354;2023-12-29T02:57:29;10.70;99.90
41922;DHT22;27609;51.002;5.354;2023-12-29T02:59:55;10.60;99.90
41922;DHT22;27609;51.002;5.354;2023-12-29T03:02:22;10.60;99.90
41922;DHT22;27609;51.002;5.354;2023-12-29T03:04:48;10.70;99.90
41922;DHT22;27609;51.002;5.354;2023-12-29T03:07:13;10.80;99.90
41922;DHT22;27609;51.002;5.354;2023-12-29T03:09:39;10.80;99.90
41922;DHT22;27609;51.002;5.354;2023-12-29T03:12:05;10.80;99.90
41922;DHT22;27609;51.002;5.354;2023-12-29T03:14:31;10.80;99.90
41922;DHT22;27609;51.002;5.354;2023-12-29T03:16:57;10.80;99.90
41922;DHT22;27609;51.002;5.354;2023-12-29T03:19:23;10.90;99.90
41922;DHT22;27609;51.002;5.354;2023-12-29T03:21:48;10.90;99.90
41922;DHT22;27609;51.002;5.354;2023-12-29T03:24:14;10.90;99.90
41922;DHT22;27609;51.002;5.354;2023-12-29T03:26:40;10.80;99.90
41922;DHT22;27609;51.002;5.354;2023-12-29T03:29:06;10.90;99.90
41922;DHT22;27609;51.002;5.354;2023-12-29T03:31:32;10.90;99.90
41922;DHT22;27609;51.002;5.354;2023-12-29T03:33:58;10.90;99.90
41922;DHT22;27609;51.002;5.354;2023-12-29T03:36:24;10.90;99.90
41922;DHT22;27609;51.002;5.354;2023-12-29T03:38:49;10.90;99.90
41922;DHT22;27609;51.002;5.354;2023-12-29T03:41:15;10.80;99.90
41922;DHT22;27609;51.002;5.354;2023-12-29T03:43:41;10.80;99.90
41922;DHT22;27609;51.002;5.354;2023-12-29T03:46:17;10.80;99.90
41922;DHT22;27609;51.002;5.354;2023-12-29T03:48:43;10.80;99.90
41922;DHT22;27609;51.002;5.354;2023-12-29T03:51:09;10.70;99.90
41922;DHT22;27609;51.002;5.354;2023-12-29T03:53:35;10.70;99.90
41922;DHT22;27609;51.002;5.354;2023-12-29T03:56:08;10.70;99.90
41922;DHT22;27609;51.002;5.354;2023-12-29T03:58:35;10.70;99.90
41922;DHT22;27609;51.002;5.354;2023-12-29T04:01:01;10.70;99.90
41922;DHT22;27609;51.002;5.354;2023-12-29T04:03:27;10.70;99.90
41922;DHT22;27609;51.002;5.354;2023-12-29T04:05:53;10.70;99.90
41922;DHT22;27609;51.002;5.354;2023-12-29T04:08:18;10.70;99.90
41922;DHT22;27609;51.002;5.354;2023-12-29T04:10:44;10.70;99.90
41922;DHT22;27609;51.002;5.354;2023-12-29T04:13:10;10.70;99.90
41922;DHT22;27609;51.002;5.354;2023-12-29T04:15:35;10.70;99.90
41922;DHT22;27609;51.002;5.354;2023-12-29T04:18:01;10.70;99.90
41922;DHT22;27609;51.002;5.354;2023-12-29T04:20:27;10.90;99.90
41922;DHT22;27609;51.002;5.354;2023-12-29T04:22:52;10.60;99.90
41922;DHT22;27609;51.002;5.354;2023-12-29T04:25:18;10.60;99.90
41922;DHT22;27609;51.002;5.354;2023-12-29T04:27:44;10.60;99.90
41922;DHT22;27609;51.002;5.354;2023-12-29T04:30:10;10.60;99.90
41922;DHT22;27609;51.002;5.354;2023-12-29T04:32:36;10.50;99.90
41922;DHT22;27609;51.002;5.354;2023-12-29T04:35:01;10.50;99.90
41922;DHT22;27609;51.002;5.354;2023-12-29T04:37:27;10.50;99.90
41922;DHT22;27609;51.002;5.354;2023-12-29T04:39:53;10.50;99.90
41922;DHT22;27609;51.002;5.354;2023-12-29T04:42:18;10.50;99.90
41922;DHT22;27609;51.002;5.354;2023-12-29T04:44:44;10.40;99.90
41922;DHT22;27609;51.002;5.354;2023-12-29T04:47:10;10.50;99.90
41922;DHT22;27609;51.002;5.354;2023-12-29T04:49:36;10.40;99.90
41922;DHT22;27609;51.002;5.354;2023-12-29T04:52:02;10.40;99.90
41922;DHT22;27609;51.002;5.354;2023-12-29T04:54:27;10.40;99.90
41922;DHT22;27609;51.002;5.354;2023-12-29T04:56:53;10.40;99.90
41922;DHT22;27609;51.002;5.354;2023-12-29T04:59:19;10.40;99.90
41922;DHT22;27609;51.002;5.354;2023-12-29T05:01:45;10.40;99.90
41922;DHT22;27609;51.002;5.354;2023-12-29T05:04:10;10.40;99.90
41922;DHT22;27609;51.002;5.354;2023-12-29T05:06:36;10.40;99.90
41922;DHT22;27609;51.002;5.354;2023-12-29T05:09:02;10.30;99.90
41922;DHT22;27609;51.002;5.354;2023-12-29T05:11:28;10.40;99.90
41922;DHT22;27609;51.002;5.354;2023-12-29T05:13:53;10.40;99.90
41922;DHT22;27609;51.002;5.354;2023-12-29T05:16:19;10.40;99.90
41922;DHT22;27609;51.002;5.354;2023-12-29T05:18:45;10.40;99.90
41922;DHT22;27609;51.002;5.354;2023-12-29T05:21:18;10.40;99.90
41922;DHT22;27609;51.002;5.354;2023-12-29T05:23:44;10.40;99.90
41922;DHT22;27609;51.002;5.354;2023-12-29T05:26:14;10.30;99.90
41922;DHT22;27609;51.002;5.354;2023-12-29T05:28:40;10.30;99.90
41922;DHT22;27609;51.002;5.354;2023-12-29T05:31:06;10.40;99.90
41922;DHT22;27609;51.002;5.354;2023-12-29T05:33:32;10.40;99.90
41922;DHT22;27609;51.002;5.354;2023-12-29T05:35:59;10.40;99.90
41922;DHT22;27609;51.002;5.354;2023-12-29T05:38:31;10.40;99.90
41922;DHT22;27609;51.002;5.354;2023-12-29T05:40:57;10.50;99.90
41922;DHT22;27609;51.002;5.354;2023-12-29T05:43:22;10.50;99.90
41922;DHT22;27609;51.002;5.354;2023-12-29T05:45:48;10.50;99.90
41922;DHT22;27609;51.002;5.354;2023-12-29T05:48:14;10.50;99.90
41922;DHT22;27609;51.002;5.354;2023-12-29T05:50:39;10.50;99.90
41922;DHT22;27609;51.002;5.354;2023-12-29T05:53:05;10.60;99.90
41922;DHT22;27609;51.002;5.354;2023-12-29T05:55:31;10.60;99.90
41922;DHT22;27609;51.002;5.354;2023-12-29T05:57:57;10.60;99.90
41922;DHT22;27609;51.002;5.354;2023-12-29T06:00:22;10.50;99.90
41922;DHT22;27609;51.002;5.354;2023-12-29T06:02:48;10.50;99.90
41922;DHT22;27609;51.002;5.354;2023-12-29T06:05:15;10.50;99.90
41922;DHT22;27609;51.002;5.354;2023-12-29T06:07:40;10.60;99.90
41922;DHT22;27609;51.002;5.354;2023-12-29T06:10:07;10.60;99.90
41922;DHT22;27609;51.002;5.354;2023-12-29T06:12:34;10.60;99.90
41922;DHT22;27609;51.002;5.354;2023-12-29T06:14:59;10.60;99.90
41922;DHT22;27609;51.002;5.354;2023-12-29T06:17:25;10.50;99.90
41922;DHT22;27609;51.002;5.354;2023-12-29T06:19:51;10.50;99.90
41922;DHT22;27609;51.002;5.354;2023-12-29T06:22:17;10.50;99.90
41922;DHT22;27609;51.002;5.354;2023-12-29T06:24:42;10.50;99.90
41922;DHT22;27609;51.002;5.354;2023-12-29T06:27:09;10.60;99.90
41922;DHT22;27609;51.002;5.354;2023-12-29T06:29:35;10.60;99.90
41922;DHT22;27609;51.002;5.354;2023-12-29T06:32:01;10.60;99.90
41922;DHT22;27609;51.002;5.354;2023-12-29T06:34:26;10.60;99.90
41922;DHT22;27609;51.002;5.354;2023-12-29T06:36:52;10.50;99.90
41922;DHT22;27609;51.002;5.354;2023-12-29T06:39:18;10.40;99.90
41922;DHT22;27609;51.002;5.354;2023-12-29T06:41:44;10.30;99.90
41922;DHT22;27609;51.002;5.354;2023-12-29T06:44:09;10.10;99.90
41922;DHT22;27609;51.002;5.354;2023-12-29T06:46:39;10.00;99.90
41922;DHT22;27609;51.002;5.354;2023-12-29T06:49:07;10.00;99.90
41922;DHT22;27609;51.002;5.354;2023-12-29T06:51:33;9.90;99.90
41922;DHT22;27609;51.002;5.354;2023-12-29T06:54:00;9.80;99.90
41922;DHT22;27609;51.002;5.354;2023-12-29T06:56:25;9.80;99.90
41922;DHT22;27609;51.002;5.354;2023-12-29T06:58:51;9.70;99.90
41922;DHT22;27609;51.002;5.354;2023-12-29T07:01:17;9.70;99.90
41922;DHT22;27609;51.002;5.354;2023-12-29T07:03:43;9.70;99.90
41922;DHT22;27609;51.002;5.354;2023-12-29T07:06:10;9.60;99.90
41922;DHT22;27609;51.002;5.354;2023-12-29T07:08:36;9.50;99.90
41922;DHT22;27609;51.002;5.354;2023-12-29T07:11:02;9.50;99.90
41922;DHT22;27609;51.002;5.354;2023-12-29T07:13:28;9.50;99.90
41922;DHT22;27609;51.002;5.354;2023-12-29T07:15:55;9.40;99.90
41922;DHT22;27609;51.002;5.354;2023-12-29T07:18:20;9.40;99.90
41922;DHT22;27609;51.002;5.354;2023-12-29T07:20:46;9.30;99.90
41922;DHT22;27609;51.002;5.354;2023-12-29T07:23:12;9.30;99.90
41922;DHT22;27609;51.002;5.354;2023-12-29T07:25:37;9.30;99.90
41922;DHT22;27609;51.002;5.354;2023-12-29T07:28:03;9.30;99.90
41922;DHT22;27609;51.002;5.354;2023-12-29T07:30:29;9.30;99.90
41922;DHT22;27609;51.002;5.354;2023-12-29T07:32:55;9.30;99.90
41922;DHT22;27609;51.002;5.354;2023-12-29T07:35:21;9.20;99.90
41922;DHT22;27609;51.002;5.354;2023-12-29T07:37:46;9.20;99.90
41922;DHT22;27609;51.002;5.354;2023-12-29T07:40:13;9.20;99.90
41922;DHT22;27609;51.002;5.354;2023-12-29T07:42:42;9.20;99.90
41922;DHT22;27609;51.002;5.354;2023-12-29T07:45:10;9.20;99.90
41922;DHT22;27609;51.002;5.354;2023-12-29T07:47:36;9.20;99.90
41922;DHT22;27609;51.002;5.354;2023-12-29T07:50:02;9.20;99.90
41922;DHT22;27609;51.002;5.354;2023-12-29T07:52:27;9.20;99.90
41922;DHT22;27609;51.002;5.354;2023-12-29T07:54:53;9.30;99.90
41922;DHT22;27609;51.002;5.354;2023-12-29T07:57:19;9.30;99.90
41922;DHT22;27609;51.002;5.354;2023-12-29T07:59:44;9.30;99.90
41922;DHT22;27609;51.002;5.354;2023-12-29T08:02:10;9.30;99.90
41922;DHT22;27609;51.002;5.354;2023-12-29T08:04:36;9.30;99.90
41922;DHT22;27609;51.002;5.354;2023-12-29T08:07:02;9.40;99.90
41922;DHT22;27609;51.002;5.354;2023-12-29T08:09:28;9.30;99.90
41922;DHT22;27609;51.002;5.354;2023-12-29T08:11:54;9.30;99.90
41922;DHT22;27609;51.002;5.354;2023-12-29T08:14:19;9.40;99.90
41922;DHT22;27609;51.002;5.354;2023-12-29T08:16:45;9.40;99.90
41922;DHT22;27609;51.002;5.354;2023-12-29T08:19:12;9.40;99.90
41922;DHT22;27609;51.002;5.354;2023-12-29T08:21:37;9.40;99.90
41922;DHT22;27609;51.002;5.354;2023-12-29T08:24:03;9.30;99.90
41922;DHT22;27609;51.002;5.354;2023-12-29T08:26:29;9.40;99.90
41922;DHT22;27609;51.002;5.354;2023-12-29T08:28:55;9.40;99.90
41922;DHT22;27609;51.002;5.354;2023-12-29T08:31:21;9.40;99.90
41922;DHT22;27609;51.002;5.354;2023-12-29T08:33:48;9.50;99.90
41922;DHT22;27609;51.002;5.354;2023-12-29T08:36:17;9.50;99.90
41922;DHT22;27609;51.002;5.354;2023-12-29T08:38:43;9.50;99.90
41922;DHT22;27609;51.002;5.354;2023-12-29T08:41:09;9.50;99.90
41922;DHT22;27609;51.002;5.354;2023-12-29T08:43:34;9.50;99.90
41922;DHT22;27609;51.002;5.354;2023-12-29T08:46:02;9.50;99.90
41922;DHT22;27609;51.002;5.354;2023-12-29T08:48:28;9.50;99.90
41922;DHT22;27609;51.002;5.354;2023-12-29T08:50:53;9.50;99.90
41922;DHT22;27609;51.002;5.354;2023-12-29T08:53:19;9.50;99.90
41922;DHT22;27609;51.002;5.354;2023-12-29T08:55:45;9.50;99.90
41922;DHT22;27609;51.002;5.354;2023-12-29T08:58:12;9.50;99.90
41922;DHT22;27609;51.002;5.354;2023-12-29T09:00:38;9.50;99.90
41922;DHT22;27609;51.002;5.354;2023-12-29T09:03:04;9.50;99.90
41922;DHT22;27609;51.002;5.354;2023-12-29T09:05:30;9.50;99.90
41922;DHT22;27609;51.002;5.354;2023-12-29T09:14:27;9.60;99.90
41922;DHT22;27609;51.002;5.354;2023-12-29T09:16:55;9.70;99.90
41922;DHT22;27609;51.002;5.354;2023-12-29T09:19:21;9.70;99.90
41922;DHT22;27609;51.002;5.354;2023-12-29T09:21:47;9.70;99.90
41922;DHT22;27609;51.002;5.354;2023-12-29T09:24:12;9.70;99.90
41922;DHT22;27609;51.002;5.354;2023-12-29T09:26:38;10.10;99.90
41922;DHT22;27609;51.002;5.354;2023-12-29T09:29:04;9.80;99.90
41922;DHT22;27609;51.002;5.354;2023-12-29T09:31:29;9.80;99.90
41922;DHT22;27609;51.002;5.354;2023-12-29T09:33:55;9.80;99.90
41922;DHT22;27609;51.002;5.354;2023-12-29T09:36:22;9.90;99.90
41922;DHT22;27609;51.002;5.354;2023-12-29T09:38:48;9.80;99.90
41922;DHT22;27609;51.002;5.354;2023-12-29T09:41:15;9.60;99.90
41922;DHT22;27609;51.002;5.354;2023-12-29T09:43:41;9.30;99.90
41922;DHT22;27609;51.002;5.354;2023-12-29T09:46:11;9.30;99.90
41922;DHT22;27609;51.002;5.354;2023-12-29T09:48:40;9.40;99.90
41922;DHT22;27609;51.002;5.354;2023-12-29T09:51:08;9.50;99.90
41922;DHT22;27609;51.002;5.354;2023-12-29T09:53:36;9.70;99.90
41922;DHT22;27609;51.002;5.354;2023-12-29T09:56:03;9.70;99.90
41922;DHT22;27609;51.002;5.354;2023-12-29T09:58:30;9.80;99.90
41922;DHT22;27609;51.002;5.354;2023-12-29T10:00:56;9.90;99.90
41922;DHT22;27609;51.002;5.354;2023-12-29T10:03:22;10.10;99.90
41922;DHT22;27609;51.002;5.354;2023-12-29T10:05:51;10.10;99.90
41922;DHT22;27609;51.002;5.354;2023-12-29T10:08:21;10.10;99.90
41922;DHT22;27609;51.002;5.354;2023-12-29T10:10:48;10.20;99.90
41922;DHT22;27609;51.002;5.354;2023-12-29T10:13:16;10.20;99.90
41922;DHT22;27609;51.002;5.354;2023-12-29T10:15:49;10.20;99.90
41922;DHT22;27609;51.002;5.354;2023-12-29T10:18:38;10.10;99.90
41922;DHT22;27609;51.002;5.354;2023-12-29T10:21:27;10.20;99.90
41922;DHT22;27609;51.002;5.354;2023-12-29T10:26:34;10.10;99.90
41922;DHT22;27609;51.002;5.354;2023-12-29T10:29:02;10.10;99.90
41922;DHT22;27609;51.002;5.354;2023-12-29T10:31:35;10.10;99.90
41922;DHT22;27609;51.002;5.354;2023-12-29T10:36:49;10.20;99.90
41922;DHT22;27609;51.002;5.354;2023-12-29T10:39:16;10.10;99.90
41922;DHT22;27609;51.002;5.354;2023-12-29T10:41:41;10.20;99.90
41922;DHT22;27609;51.002;5.354;2023-12-29T10:44:07;10.20;99.90
41922;DHT22;27609;51.002;5.354;2023-12-29T10:46:34;10.20;99.90
41922;DHT22;27609;51.002;5.354;2023-12-29T10:49:10;10.20;99.90
41922;DHT22;27609;51.002;5.354;2023-12-29T10:51:37;10.20;99.90
41922;DHT22;27609;51.002;5.354;2023-12-29T10:54:03;10.20;99.90
41922;DHT22;27609;51.002;5.354;2023-12-29T10:56:32;10.20;99.90
41922;DHT22;27609;51.002;5.354;2023-12-29T10:59:06;10.20;99.90
41922;DHT22;27609;51.002;5.354;2023-12-29T11:01:34;10.20;99.90
41922;DHT22;27609;51.002;5.354;2023-12-29T11:04:00;10.20;99.90
41922;DHT22;27609;51.002;5.354;2023-12-29T11:06:27;10.10;99.90
41922;DHT22;27609;51.002;5.354;2023-12-29T11:08:55;10.20;99.90
41922;DHT22;27609;51.002;5.354;2023-12-29T11:11:21;10.10;99.90
41922;DHT22;27609;51.002;5.354;2023-12-29T11:13:48;10.20;99.90
41922;DHT22;27609;51.002;5.354;2023-12-29T11:16:14;10.20;99.90
41922;DHT22;27609;51.002;5.354;2023-12-29T11:18:43;10.30;99.90
41922;DHT22;27609;51.002;5.354;2023-12-29T11:21:12;10.30;99.90
41922;DHT22;27609;51.002;5.354;2023-12-29T11:23:38;10.50;99.90
41922;DHT22;27609;51.002;5.354;2023-12-29T11:26:04;10.50;99.90
41922;DHT22;27609;51.002;5.354;2023-12-29T11:28:30;10.50;99.90
41922;DHT22;27609;51.002;5.354;2023-12-29T11:30:56;10.50;99.90
41922;DHT22;27609;51.002;5.354;2023-12-29T11:33:25;10.40;99.90
41922;DHT22;27609;51.002;5.354;2023-12-29T11:35:56;10.40;99.90
41922;DHT22;27609;51.002;5.354;2023-12-29T11:41:21;10.30;99.90
41922;DHT22;27609;51.002;5.354;2023-12-29T11:43:57;10.30;99.90
41922;DHT22;27609;51.002;5.354;2023-12-29T11:46:36;10.30;99.90
41922;DHT22;27609;51.002;5.354;2023-12-29T11:49:03;10.30;99.90
41922;DHT22;27609;51.002;5.354;2023-12-29T11:51:33;10.20;99.90
41922;DHT22;27609;51.002;5.354;2023-12-29T11:54:00;10.30;99.90
41922;DHT22;27609;51.002;5.354;2023-12-29T11:56:31;10.30;99.90
41922;DHT22;27609;51.002;5.354;2023-12-29T11:59:15;10.30;99.90
41922;DHT22;27609;51.002;5.354;2023-12-29T12:01:41;10.30;99.90
41922;DHT22;27609;51.002;5.354;2023-12-29T12:04:36;10.30;99.90
41922;DHT22;27609;51.002;5.354;2023-12-29T12:07:13;10.50;99.90
41922;DHT22;27609;51.002;5.354;2023-12-29T12:09:39;10.40;99.90
41922;DHT22;27609;51.002;5.354;2023-12-29T12:12:05;10.40;99.90
41922;DHT22;27609;51.002;5.354;2023-12-29T12:14:50;10.40;99.90
41922;DHT22;27609;51.002;5.354;2023-12-29T12:17:33;9.50;99.90
41922;DHT22;27609;51.002;5.354;2023-12-29T12:22:31;10.40;99.90
41922;DHT22;27609;51.002;5.354;2023-12-29T12:25:00;10.50;99.90
41922;DHT22;27609;51.002;5.354;2023-12-29T12:27:27;10.50;99.90
41922;DHT22;27609;51.002;5.354;2023-12-29T12:29:54;10.50;99.90
41922;DHT22;27609;51.002;5.354;2023-12-29T12:32:28;10.40;99.90
41922;DHT22;27609;51.002;5.354;2023-12-29T12:34:55;10.50;99.90
41922;DHT22;27609;51.002;5.354;2023-12-29T12:37:23;10.40;99.90
41922;DHT22;27609;51.002;5.354;2023-12-29T12:39:49;10.40;99.90
41922;DHT22;27609;51.002;5.354;2023-12-29T12:42:22;10.40;99.90
41922;DHT22;27609;51.002;5.354;2023-12-29T12:44:56;10.40;99.90
41922;DHT22;27609;51.002;5.354;2023-12-29T12:47:30;10.40;99.90
41922;DHT22;27609;51.002;5.354;2023-12-29T12:49:59;10.40;99.90
41922;DHT22;27609;51.002;5.354;2023-12-29T12:52:25;10.40;99.90
41922;DHT22;27609;51.002;5.354;2023-12-29T12:54:53;10.30;99.90
41922;DHT22;27609;51.002;5.354;2023-12-29T12:57:20;10.30;99.90
41922;DHT22;27609;51.002;5.354;2023-12-29T12:59:48;10.30;99.90
41922;DHT22;27609;51.002;5.354;2023-12-29T13:02:15;10.30;99.90
41922;DHT22;27609;51.002;5.354;2023-12-29T13:04:42;10.30;99.90
41922;DHT22;27609;51.002;5.354;2023-12-29T13:07:08;10.30;99.90
41922;DHT22;27609;51.002;5.354;2023-12-29T13:09:36;10.10;99.90
41922;DHT22;27609;51.002;5.354;2023-12-29T13:12:12;10.20;99.90
41922;DHT22;27609;51.002;5.354;2023-12-29T13:14:42;10.10;99.90
41922;DHT22;27609;51.002;5.354;2023-12-29T13:17:09;10.00;99.90
41922;DHT22;27609;51.002;5.354;2023-12-29T13:19:38;10.00;99.90
41922;DHT22;27609;51.002;5.354;2023-12-29T13:22:09;9.90;99.90
41922;DHT22;27609;51.002;5.354;2023-12-29T13:24:43;10.00;99.90
41922;DHT22;27609;51.002;5.354;2023-12-29T13:27:08;10.00;99.90
41922;DHT22;27609;51.002;5.354;2023-12-29T13:29:35;10.00;99.90
41922;DHT22;27609;51.002;5.354;2023-12-29T13:32:14;10.10;99.90
41922;DHT22;27609;51.002;5.354;2023-12-29T13:37:30;10.10;99.90
41922;DHT22;27609;51.002;5.354;2023-12-29T13:40:08;10.10;99.90
41922;DHT22;27609;51.002;5.354;2023-12-29T13:42:37;10.00;99.90
41922;DHT22;27609;51.002;5.354;2023-12-29T13:45:04;10.00;99.90
41922;DHT22;27609;51.002;5.354;2023-12-29T13:47:31;10.10;99.90
41922;DHT22;27609;51.002;5.354;2023-12-29T13:49:58;10.10;99.90
41922;DHT22;27609;51.002;5.354;2023-12-29T13:52:24;10.10;99.90
41922;DHT22;27609;51.002;5.354;2023-12-29T13:54:50;10.20;99.90
41922;DHT22;27609;51.002;5.354;2023-12-29T13:57:15;10.20;99.90
41922;DHT22;27609;51.002;5.354;2023-12-29T13:59:41;10.20;99.90
41922;DHT22;27609;51.002;5.354;2023-12-29T14:02:28;9.90;99.90
41922;DHT22;27609;51.002;5.354;2023-12-29T14:05:23;10.20;99.90
41922;DHT22;27609;51.002;5.354;2023-12-29T14:08:04;10.20;99.90
41922;DHT22;27609;51.002;5.354;2023-12-29T14:10:36;10.20;99.90
41922;DHT22;27609;51.002;5.354;2023-12-29T14:13:08;10.20;99.90
41922;DHT22;27609;51.002;5.354;2023-12-29T14:15:41;10.50;99.90
41922;DHT22;27609;51.002;5.354;2023-12-29T14:20:48;10.20;99.90
41922;DHT22;27609;51.002;5.354;2023-12-29T14:23:14;10.20;99.90
41922;DHT22;27609;51.002;5.354;2023-12-29T14:25:43;10.00;99.90
41922;DHT22;27609;51.002;5.354;2023-12-29T14:28:17;10.30;99.90
41922;DHT22;27609;51.002;5.354;2023-12-29T14:30:44;9.90;99.90
41922;DHT22;27609;51.002;5.354;2023-12-29T14:33:10;10.30;99.90
41922;DHT22;27609;51.002;5.354;2023-12-29T14:35:36;10.30;99.90
41922;DHT22;27609;51.002;5.354;2023-12-29T14:38:02;10.20;99.90
41922;DHT22;27609;51.002;5.354;2023-12-29T14:40:28;10.20;99.90
41922;DHT22;27609;51.002;5.354;2023-12-29T14:42:53;10.20;99.90
41922;DHT22;27609;51.002;5.354;2023-12-29T14:45:19;10.20;99.90
41922;DHT22;27609;51.002;5.354;2023-12-29T14:47:45;10.20;99.90
41922;DHT22;27609;51.002;5.354;2023-12-29T14:50:11;10.10;99.90
41922;DHT22;27609;51.002;5.354;2023-12-29T14:52:37;10.20;99.90
41922;DHT22;27609;51.002;5.354;2023-12-29T14:55:03;10.20;99.90
41922;DHT22;27609;51.002;5.354;2023-12-29T14:57:29;10.10;99.90
41922;DHT22;27609;51.002;5.354;2023-12-29T14:59:55;10.10;99.90
41922;DHT22;27609;51.002;5.354;2023-12-29T15:02:21;10.10;99.90
41922;DHT22;27609;51.002;5.354;2023-12-29T15:04:46;10.10;99.90
41922;DHT22;27609;51.002;5.354;2023-12-29T15:07:14;10.10;99.90
41922;DHT22;27609;51.002;5.354;2023-12-29T15:09:40;10.10;99.90
41922;DHT22;27609;51.002;5.354;2023-12-29T15:12:06;10.10;99.90
41922;DHT22;27609;51.002;5.354;2023-12-29T15:14:32;10.20;99.90
41922;DHT22;27609;51.002;5.354;2023-12-29T15:16:57;10.10;99.90
41922;DHT22;27609;51.002;5.354;2023-12-29T15:19:23;10.10;99.90
41922;DHT22;27609;51.002;5.354;2023-12-29T15:21:49;10.10;99.90
41922;DHT22;27609;51.002;5.354;2023-12-29T15:24:21;10.10;99.90
41922;DHT22;27609;51.002;5.354;2023-12-29T15:26:48;10.10;99.90
41922;DHT22;27609;51.002;5.354;2023-12-29T15:29:13;10.10;99.90
41922;DHT22;27609;51.002;5.354;2023-12-29T15:31:45;10.00;99.90
41922;DHT22;27609;51.002;5.354;2023-12-29T15:34:12;10.20;99.90
41922;DHT22;27609;51.002;5.354;2023-12-29T15:36:38;10.10;99.90
41922;DHT22;27609;51.002;5.354;2023-12-29T15:39:04;10.00;99.90
41922;DHT22;27609;51.002;5.354;2023-12-29T15:41:33;10.10;99.90
41922;DHT22;27609;51.002;5.354;2023-12-29T15:43:59;10.10;99.90
41922;DHT22;27609;51.002;5.354;2023-12-29T15:46:25;10.20;99.90
41922;DHT22;27609;51.002;5.354;2023-12-29T15:48:51;10.60;99.90
41922;DHT22;27609;51.002;5.354;2023-12-29T15:51:17;10.10;99.90
41922;DHT22;27609;51.002;5.354;2023-12-29T15:53:42;10.00;99.90
41922;DHT22;27609;51.002;5.354;2023-12-29T15:56:16;10.10;99.90
41922;DHT22;27609;51.002;5.354;2023-12-29T15:58:44;10.10;99.90
41922;DHT22;27609;51.002;5.354;2023-12-29T16:01:10;10.10;99.90
41922;DHT22;27609;51.002;5.354;2023-12-29T16:03:36;10.10;99.90